createdAt,value
2023-03-02T00:01:41.593Z,1.00
2023-03-02T00:04:14.375Z,1.10
2023-03-02T00:06:41.101Z,1.00
2023-03-02T00:09:07.777Z,0.90
2023-03-02T00:11:36.536Z,0.90
2023-03-02T00:14:11.900Z,0.80
2023-03-02T00:16:40.130Z,0.80
2023-03-02T00:19:06.754Z,0.70
2023-03-02T00:21:33.443Z,0.80
2023-03-02T00:24:00.039Z,0.80
2023-03-02T00:26:26.720Z,0.90
2023-03-02T00:28:53.340Z,0.70
2023-03-02T00:31:20.001Z,0.70
2023-03-02T00:33:46.661Z,0.70
2023-03-02T00:36:20.846Z,0.70
2023-03-02T00:38:48.275Z,0.60
2023-03-02T00:41:16.038Z,0.60
2023-03-02T00:43:43.092Z,0.70
2023-03-02T00:46:18.492Z,0.70
2023-03-02T00:48:45.413Z,0.50
2023-03-02T00:51:13.031Z,0.50
2023-03-02T00:53:40.011Z,0.60
2023-03-02T00:56:08.263Z,0.60
2023-03-02T00:58:35.031Z,0.60
2023-03-02T01:01:10.645Z,0.60
2023-03-02T01:03:37.375Z,0.60
2023-03-02T01:06:05.090Z,0.50
2023-03-02T01:08:32.210Z,0.50
2023-03-02T01:11:01.305Z,0.60
2023-03-02T01:13:28.524Z,0.50
2023-03-02T01:16:02.699Z,0.50
2023-03-02T01:18:29.623Z,0.50
2023-03-02T01:21:04.393Z,0.50
2023-03-02T01:23:31.018Z,0.50
2023-03-02T01:25:57.673Z,0.30
2023-03-02T01:28:24.441Z,0.40
2023-03-02T01:30:51.800Z,0.40
2023-03-02T01:33:18.433Z,0.40
2023-03-02T01:35:46.467Z,0.30
2023-03-02T01:38:13.501Z,0.20
2023-03-02T01:40:40.211Z,0.40
2023-03-02T01:43:12.213Z,0.20
2023-03-02T01:46:01.642Z,0.20
2023-03-02T01:48:58.033Z,0.10
2023-03-02T01:51:27.088Z,0.20
2023-03-02T01:54:03.926Z,0.20
2023-03-02T01:56:34.811Z,0.10
2023-03-02T01:59:07.635Z,0.20
2023-03-02T02:01:38.004Z,0.10
2023-03-02T02:04:06.034Z,0.00
2023-03-02T02:06:37.946Z,0.00
2023-03-02T02:09:08.319Z,-0.10
2023-03-02T02:11:35.205Z,-0.50
2023-03-02T02:14:03.147Z,-0.10
2023-03-02T02:16:33.313Z,-0.30
2023-03-02T02:19:01.473Z,-0.40
2023-03-02T02:21:28.707Z,-0.40
2023-03-02T02:24:05.458Z,-0.40
2023-03-02T02:26:32.215Z,-0.40
2023-03-02T02:29:04.746Z,-0.40
2023-03-02T02:31:42.277Z,-0.50
2023-03-02T02:34:23.882Z,-0.50
2023-03-02T02:36:55.830Z,-0.50
2023-03-02T02:39:28.944Z,-0.60
2023-03-02T02:41:59.149Z,-0.70
2023-03-02T02:44:25.986Z,-0.70
2023-03-02T02:46:52.623Z,-0.80
2023-03-02T02:49:35.163Z,-0.90
2023-03-02T02:52:03.699Z,-0.90
2023-03-02T02:54:32.606Z,-1.00
2023-03-02T02:57:01.326Z,-1.20
2023-03-02T02:59:32.485Z,-1.20
2023-03-02T03:01:59.927Z,-1.20
2023-03-02T03:04:30.917Z,-1.30
2023-03-02T03:07:03.624Z,-1.40
2023-03-02T03:09:31.483Z,-1.40
2023-03-02T03:12:03.912Z,-1.50
2023-03-02T03:14:41.219Z,-1.40
2023-03-02T03:17:12.160Z,-1.40
2023-03-02T03:19:45.273Z,-1.40
2023-03-02T03:22:14.521Z,-1.50
2023-03-02T03:24:43.045Z,-1.60
2023-03-02T03:27:11.643Z,-1.50
2023-03-02T03:29:40.151Z,-1.40
2023-03-02T03:32:07.005Z,-1.40
2023-03-02T03:34:40.516Z,-1.50
2023-03-02T03:37:13.729Z,-1.50
2023-03-02T03:39:41.167Z,-1.50
2023-03-02T03:42:07.889Z,-1.60
2023-03-02T03:44:34.735Z,-1.60
2023-03-02T03:47:01.780Z,-1.50
2023-03-02T03:49:29.021Z,-1.60
2023-03-02T03:51:55.779Z,-1.60
2023-03-02T03:54:22.420Z,-1.50
2023-03-02T03:56:50.627Z,-1.40
2023-03-02T03:59:23.681Z,-1.20
2023-03-02T04:01:56.325Z,-1.20
2023-03-02T04:04:30.421Z,-1.10
2023-03-02T04:06:57.557Z,-0.70
2023-03-02T04:09:25.024Z,-0.60
2023-03-02T04:11:55.822Z,-0.60
2023-03-02T04:14:23.736Z,-0.70
2023-03-02T04:16:51.365Z,-0.90
2023-03-02T04:19:18.044Z,-0.70
2023-03-02T04:21:50.882Z,-0.70
2023-03-02T04:24:19.666Z,-0.80
2023-03-02T04:26:49.051Z,-0.80
2023-03-02T04:29:16.487Z,-1.00
2023-03-02T04:31:43.664Z,-1.10
2023-03-02T04:34:10.615Z,-1.20
2023-03-02T04:36:39.780Z,-1.10
2023-03-02T04:39:06.864Z,-1.30
2023-03-02T04:41:34.070Z,-1.40
2023-03-02T04:44:00.819Z,-1.60
2023-03-02T04:46:28.655Z,-1.70
2023-03-02T04:48:55.445Z,-1.60
2023-03-02T04:51:28.212Z,-1.70
2023-03-02T04:53:57.363Z,-1.80
2023-03-02T04:56:24.502Z,-1.90
2023-03-02T04:58:51.472Z,-2.00
2023-03-02T05:01:19.530Z,-2.00
2023-03-02T05:03:46.666Z,-2.00
2023-03-02T05:06:13.872Z,-2.10
2023-03-02T05:08:40.898Z,-2.00
2023-03-02T05:11:08.191Z,-2.00
2023-03-02T05:13:35.486Z,-2.10
2023-03-02T05:16:02.716Z,-2.10
2023-03-02T05:18:29.418Z,-2.10
2023-03-02T05:20:56.090Z,-2.20
2023-03-02T05:23:26.990Z,-2.30
2023-03-02T05:25:55.355Z,-2.30
2023-03-02T05:28:24.510Z,-2.30
2023-03-02T05:30:52.143Z,-2.30
2023-03-02T05:33:19.752Z,-2.40
2023-03-02T05:35:46.986Z,-2.40
2023-03-02T05:38:13.990Z,-2.40
2023-03-02T05:40:42.220Z,-2.40
2023-03-02T05:43:10.451Z,-2.00
2023-03-02T05:45:38.776Z,-2.00
2023-03-02T05:48:06.370Z,-2.00
2023-03-02T05:50:33.519Z,-1.70
2023-03-02T05:53:02.483Z,-1.70
2023-03-02T05:55:29.905Z,-1.70
2023-03-02T05:57:56.903Z,-1.60
2023-03-02T06:00:23.898Z,-1.70
2023-03-02T06:02:50.591Z,-1.80
2023-03-02T06:05:19.590Z,-1.50
2023-03-02T06:07:46.632Z,-1.50
2023-03-02T06:10:14.231Z,-1.50
2023-03-02T06:12:41.292Z,-1.60
2023-03-02T06:15:09.043Z,-1.60
2023-03-02T06:17:36.130Z,-1.60
2023-03-02T06:20:07.866Z,-1.60
2023-03-02T06:22:34.503Z,-1.60
2023-03-02T06:25:01.108Z,-1.60
2023-03-02T06:27:27.741Z,-1.60
2023-03-02T06:29:54.354Z,-1.50
2023-03-02T06:32:21.094Z,-1.50
2023-03-02T06:34:48.162Z,-1.40
2023-03-02T06:37:14.745Z,-1.30
2023-03-02T06:39:41.355Z,-1.30
2023-03-02T06:42:07.952Z,-1.20
2023-03-02T06:44:34.584Z,-1.00
2023-03-02T06:47:01.204Z,-0.90
2023-03-02T06:49:27.822Z,-0.90
2023-03-02T06:51:54.429Z,-0.90
2023-03-02T06:54:23.127Z,-0.80
2023-03-02T06:56:50.554Z,-0.70
2023-03-02T06:59:17.198Z,-0.30
2023-03-02T07:01:43.988Z,-0.30
2023-03-02T07:04:10.652Z,-0.30
2023-03-02T07:06:37.286Z,-0.20
2023-03-02T07:09:04.459Z,0.00
2023-03-02T07:11:31.218Z,-0.10
2023-03-02T07:14:00.499Z,0.10
2023-03-02T07:16:27.737Z,0.30
2023-03-02T07:18:54.408Z,0.50
2023-03-02T07:21:21.030Z,0.70
2023-03-02T07:23:47.719Z,0.70
2023-03-02T07:26:14.330Z,0.80
2023-03-02T07:28:41.893Z,0.70
2023-03-02T07:31:09.050Z,0.80
2023-03-02T07:33:36.721Z,0.80
2023-03-02T07:36:04.164Z,0.90
2023-03-02T07:38:30.829Z,0.90
2023-03-02T07:40:57.512Z,1.00
2023-03-02T07:43:25.977Z,1.10
2023-03-02T07:45:53.153Z,1.20
2023-03-02T07:48:20.085Z,1.20
2023-03-02T07:50:46.801Z,1.30
2023-03-02T07:53:13.446Z,1.40
2023-03-02T07:55:41.420Z,1.40
2023-03-02T07:58:08.522Z,1.40
2023-03-02T08:00:36.645Z,1.50
2023-03-02T08:03:03.454Z,1.60
2023-03-02T08:05:30.693Z,1.80
2023-03-02T08:07:57.301Z,1.80
2023-03-02T08:10:24.066Z,1.80
2023-03-02T08:12:50.676Z,1.80
2023-03-02T08:15:17.345Z,1.80
2023-03-02T08:17:44.859Z,1.80
2023-03-02T08:20:12.243Z,2.00
2023-03-02T08:22:38.893Z,2.00
2023-03-02T08:25:07.238Z,2.10
2023-03-02T08:27:33.849Z,2.20
2023-03-02T08:30:00.653Z,2.00
2023-03-02T08:32:27.579Z,2.60
2023-03-02T08:34:54.493Z,2.30
2023-03-02T08:37:21.163Z,2.50
2023-03-02T08:39:48.435Z,3.20
2023-03-02T08:42:15.202Z,3.50
2023-03-02T08:44:41.844Z,3.50
2023-03-02T08:47:08.451Z,3.40
2023-03-02T08:49:36.747Z,4.00
2023-03-02T08:52:04.422Z,5.00
2023-03-02T08:54:32.175Z,5.50
2023-03-02T08:56:58.785Z,6.50
2023-03-02T08:59:25.546Z,5.80
2023-03-02T09:01:52.188Z,6.20
2023-03-02T09:04:19.225Z,7.90
2023-03-02T09:06:46.122Z,5.80
2023-03-02T09:09:14.520Z,6.10
2023-03-02T09:11:42.274Z,5.70
2023-03-02T09:14:09.346Z,6.30
2023-03-02T09:16:36.692Z,6.10
2023-03-02T09:19:04.042Z,5.60
2023-03-02T09:21:30.881Z,6.10
2023-03-02T09:23:58.413Z,6.80
2023-03-02T09:26:26.633Z,6.20
2023-03-02T09:28:53.447Z,5.60
2023-03-02T09:31:20.390Z,7.90
2023-03-02T09:33:47.121Z,6.60
2023-03-02T09:36:22.947Z,7.70
2023-03-02T09:38:50.095Z,8.70
2023-03-02T09:41:19.798Z,9.20
2023-03-02T09:44:14.232Z,6.50
2023-03-02T09:46:48.168Z,6.00
2023-03-02T09:49:45.852Z,6.20
2023-03-02T09:52:47.242Z,7.50
2023-03-02T09:55:22.337Z,7.20
2023-03-02T09:57:50.091Z,6.80
2023-03-02T10:00:31.832Z,7.90
2023-03-02T10:03:16.182Z,9.10
2023-03-02T10:05:46.975Z,10.40
2023-03-02T10:08:20.708Z,9.40
2023-03-02T10:10:54.445Z,9.70
2023-03-02T10:13:42.126Z,9.60
2023-03-02T10:16:41.089Z,9.20
2023-03-02T10:19:10.429Z,11.90
2023-03-02T10:21:43.876Z,10.70
2023-03-02T10:24:38.344Z,10.10
2023-03-02T10:27:20.530Z,10.20
2023-03-02T10:29:56.399Z,10.00
2023-03-02T10:32:25.238Z,10.60
2023-03-02T10:34:53.503Z,11.10
2023-03-02T10:37:24.936Z,10.20
2023-03-02T10:39:52.559Z,10.30
2023-03-02T10:42:37.723Z,14.70
2023-03-02T10:45:16.313Z,13.40
2023-03-02T10:47:43.000Z,13.60
2023-03-02T10:50:23.580Z,12.80
2023-03-02T10:52:59.538Z,13.00
2023-03-02T10:55:27.357Z,11.40
2023-03-02T10:58:04.706Z,12.20
2023-03-02T11:00:32.944Z,10.20
2023-03-02T11:03:05.892Z,11.40
2023-03-02T11:05:36.409Z,12.80
2023-03-02T11:08:09.630Z,11.70
2023-03-02T11:10:41.863Z,10.50
2023-03-02T11:13:23.732Z,10.30
2023-03-02T11:15:53.003Z,9.90
2023-03-02T11:18:42.700Z,9.50
2023-03-02T11:21:22.287Z,8.30
2023-03-02T11:24:10.037Z,8.40
2023-03-02T11:26:50.004Z,8.20
2023-03-02T11:29:22.202Z,8.00
2023-03-02T11:32:07.864Z,8.10
2023-03-02T11:34:42.516Z,8.00
2023-03-02T11:37:16.989Z,8.30
2023-03-02T11:39:55.355Z,8.20
2023-03-02T11:42:30.848Z,8.20
2023-03-02T11:45:02.407Z,9.00
2023-03-02T11:47:32.653Z,8.90
2023-03-02T11:50:05.281Z,9.00
2023-03-02T11:52:37.693Z,9.30
2023-03-02T11:55:05.901Z,9.10
2023-03-02T11:57:48.524Z,8.30
2023-03-02T12:00:36.960Z,8.50
2023-03-02T12:03:20.036Z,8.50
2023-03-02T12:05:58.696Z,8.80
2023-03-02T12:08:25.272Z,8.70
2023-03-02T12:11:03.290Z,8.90
2023-03-02T12:13:38.721Z,9.00
2023-03-02T12:16:34.355Z,8.80
2023-03-02T12:19:16.504Z,8.90
2023-03-02T12:21:59.154Z,8.90
2023-03-02T12:24:34.197Z,8.90
2023-03-02T12:27:14.116Z,8.70
2023-03-02T12:29:43.138Z,9.00
2023-03-02T12:32:28.042Z,9.30
2023-03-02T12:35:09.301Z,9.10
2023-03-02T12:37:49.320Z,9.20
2023-03-02T12:40:40.730Z,9.30
2023-03-02T12:43:27.740Z,9.40
2023-03-02T12:46:28.596Z,9.80
2023-03-02T12:49:22.557Z,9.40
2023-03-02T12:51:56.502Z,9.60
2023-03-02T12:54:31.796Z,9.90
2023-03-02T12:57:13.343Z,9.80
2023-03-02T12:59:40.209Z,9.80
2023-03-02T13:02:16.670Z,9.90
2023-03-02T13:04:43.830Z,9.90
2023-03-02T13:07:26.585Z,10.10
2023-03-02T13:09:56.905Z,9.90
2023-03-02T13:12:27.047Z,10.00
2023-03-02T13:14:56.802Z,10.30
2023-03-02T13:17:32.005Z,10.00
2023-03-02T13:20:04.475Z,10.30
2023-03-02T13:22:31.456Z,10.30
2023-03-02T13:25:02.129Z,10.20
2023-03-02T13:27:29.292Z,10.50
2023-03-02T13:29:56.663Z,10.20
2023-03-02T13:32:40.042Z,10.20
2023-03-02T13:35:17.845Z,10.30
2023-03-02T13:37:44.636Z,10.40
2023-03-02T13:40:24.220Z,10.50
2023-03-02T13:42:51.344Z,10.70
2023-03-02T13:45:29.827Z,10.70
2023-03-02T13:48:11.778Z,10.30
2023-03-02T13:50:38.476Z,10.30
2023-03-02T13:53:07.022Z,10.20
2023-03-02T13:55:34.730Z,10.50
2023-03-02T13:58:02.381Z,10.80
2023-03-02T14:00:32.968Z,10.70
2023-03-02T14:03:00.305Z,10.70
2023-03-02T14:05:33.102Z,10.90
2023-03-02T14:08:00.478Z,10.90
2023-03-02T14:10:27.404Z,10.90
2023-03-02T14:13:02.366Z,10.90
2023-03-02T14:15:29.121Z,10.90
2023-03-02T14:17:55.836Z,10.80
2023-03-02T14:20:22.518Z,10.70
2023-03-02T14:22:50.579Z,10.90
2023-03-02T14:25:17.706Z,10.80
2023-03-02T14:27:44.677Z,10.90
2023-03-02T14:30:19.804Z,11.00
2023-03-02T14:32:47.150Z,10.90
2023-03-02T14:35:16.570Z,11.00
2023-03-02T14:37:46.984Z,10.90
2023-03-02T14:40:39.986Z,10.90
2023-03-02T14:43:06.640Z,10.80
2023-03-02T14:45:33.254Z,10.70
2023-03-02T14:48:00.272Z,10.90
2023-03-02T14:50:27.005Z,10.90
2023-03-02T14:52:56.603Z,10.70
2023-03-02T14:55:31.977Z,10.70
2023-03-02T14:57:59.830Z,10.70
2023-03-02T15:00:27.398Z,10.70
2023-03-02T15:02:54.533Z,10.80
2023-03-02T15:05:21.812Z,10.70
2023-03-02T15:07:49.267Z,10.70
2023-03-02T15:10:21.687Z,10.80
2023-03-02T15:12:48.307Z,10.90
2023-03-02T15:15:15.112Z,10.70
2023-03-02T15:17:42.044Z,10.80
2023-03-02T15:20:16.340Z,10.50
2023-03-02T15:22:43.351Z,10.50
2023-03-02T15:25:10.447Z,10.70
2023-03-02T15:27:37.247Z,10.70
2023-03-02T15:30:04.826Z,10.60
2023-03-02T15:32:31.558Z,10.70
2023-03-02T15:34:58.202Z,10.60
2023-03-02T15:37:24.816Z,10.70
2023-03-02T15:39:55.848Z,10.60
2023-03-02T15:42:23.168Z,10.60
2023-03-02T15:44:49.945Z,10.50
2023-03-02T15:47:17.024Z,10.60
2023-03-02T15:49:43.694Z,10.50
2023-03-02T15:52:11.856Z,10.40
2023-03-02T15:54:38.713Z,10.30
2023-03-02T15:57:05.425Z,10.30
2023-03-02T15:59:32.802Z,10.30
2023-03-02T16:02:02.060Z,10.30
2023-03-02T16:04:30.459Z,10.30
2023-03-02T16:06:57.613Z,10.20
2023-03-02T16:09:25.517Z,10.20
2023-03-02T16:11:52.938Z,10.20
2023-03-02T16:14:19.924Z,10.20
2023-03-02T16:16:46.789Z,10.20
2023-03-02T16:19:17.771Z,10.10
2023-03-02T16:21:46.178Z,9.90
2023-03-02T16:24:13.143Z,9.90
2023-03-02T16:26:39.794Z,9.80
2023-03-02T16:29:09.552Z,9.70
2023-03-02T16:31:37.812Z,9.70
2023-03-02T16:34:08.836Z,9.60
2023-03-02T16:36:37.796Z,9.60
2023-03-02T16:39:05.645Z,9.50
2023-03-02T16:41:32.329Z,9.50
2023-03-02T16:44:00.418Z,9.40
2023-03-02T16:46:29.698Z,9.40
2023-03-02T16:48:58.129Z,9.30
2023-03-02T16:51:25.166Z,9.30
2023-03-02T16:53:51.809Z,9.20
2023-03-02T16:56:18.570Z,9.10
2023-03-02T16:58:45.275Z,9.00
2023-03-02T17:01:18.315Z,8.90
2023-03-02T17:03:45.912Z,8.80
2023-03-02T17:06:14.670Z,8.90
2023-03-02T17:08:41.323Z,8.80
2023-03-02T17:11:08.016Z,8.60
2023-03-02T17:13:34.979Z,8.40
2023-03-02T17:16:02.042Z,8.30
2023-03-02T17:18:29.573Z,8.00
2023-03-02T17:20:58.601Z,7.90
2023-03-02T17:23:27.007Z,7.80
2023-03-02T17:25:54.272Z,7.80
2023-03-02T17:28:20.967Z,7.60
2023-03-02T17:30:47.895Z,7.50
2023-03-02T17:33:14.660Z,7.40
2023-03-02T17:35:42.544Z,7.10
2023-03-02T17:38:09.362Z,6.90
2023-03-02T17:40:36.019Z,6.70
2023-03-02T17:43:02.849Z,6.50
2023-03-02T17:45:29.940Z,6.40
2023-03-02T17:47:58.315Z,6.50
2023-03-02T17:50:25.714Z,6.40
2023-03-02T17:52:52.692Z,6.20
2023-03-02T17:55:20.133Z,6.00
2023-03-02T17:57:46.970Z,5.90
2023-03-02T18:00:17.229Z,5.70
2023-03-02T18:02:44.034Z,5.60
2023-03-02T18:05:11.632Z,5.50
2023-03-02T18:07:38.453Z,5.30
2023-03-02T18:10:06.374Z,5.10
2023-03-02T18:12:33.772Z,5.30
2023-03-02T18:15:00.387Z,5.20
2023-03-02T18:17:27.421Z,5.10
2023-03-02T18:19:54.213Z,5.00
2023-03-02T18:22:21.941Z,4.80
2023-03-02T18:24:50.327Z,4.70
2023-03-02T18:27:17.391Z,4.50
2023-03-02T18:29:44.088Z,4.50
2023-03-02T18:32:12.326Z,4.40
2023-03-02T18:34:39.101Z,4.40
2023-03-02T18:37:05.872Z,4.50
2023-03-02T18:39:32.836Z,4.60
2023-03-02T18:42:00.032Z,4.50
2023-03-02T18:44:28.313Z,4.60
2023-03-02T18:46:55.666Z,4.40
2023-03-02T18:49:22.808Z,4.40
2023-03-02T18:51:49.918Z,4.40
2023-03-02T18:54:16.639Z,4.40
2023-03-02T18:56:43.362Z,4.30
2023-03-02T18:59:11.018Z,4.40
2023-03-02T19:01:37.758Z,4.40
2023-03-02T19:04:04.827Z,4.40
2023-03-02T19:06:32.408Z,4.20
2023-03-02T19:09:00.429Z,4.00
2023-03-02T19:11:27.176Z,4.00
2023-03-02T19:13:53.822Z,3.90
2023-03-02T19:16:20.588Z,3.70
2023-03-02T19:18:48.595Z,3.70
2023-03-02T19:21:15.592Z,4.20
2023-03-02T19:23:42.409Z,4.50
2023-03-02T19:26:09.636Z,4.50
2023-03-02T19:28:38.338Z,4.20
2023-03-02T19:31:06.789Z,4.20
2023-03-02T19:33:33.873Z,4.20
2023-03-02T19:36:00.694Z,4.10
2023-03-02T19:38:29.160Z,3.90
2023-03-02T19:40:58.028Z,3.70
2023-03-02T19:43:25.979Z,3.60
2023-03-02T19:45:52.812Z,3.50
2023-03-02T19:48:20.370Z,3.40
2023-03-02T19:50:47.600Z,3.30
2023-03-02T19:53:15.853Z,3.20
2023-03-02T19:55:43.222Z,3.10
2023-03-02T19:58:12.702Z,2.90
2023-03-02T20:00:39.475Z,2.90
2023-03-02T20:03:07.082Z,2.80
2023-03-02T20:05:35.522Z,2.70
2023-03-02T20:08:02.212Z,2.50
2023-03-02T20:10:38.977Z,2.60
2023-03-02T20:13:06.684Z,2.60
2023-03-02T20:15:38.047Z,2.60
2023-03-02T20:18:07.365Z,2.60
2023-03-02T20:20:34.033Z,2.60
2023-03-02T20:23:00.813Z,2.30
2023-03-02T20:25:28.565Z,2.20
2023-03-02T20:27:56.706Z,2.10
2023-03-02T20:30:29.773Z,2.10
2023-03-02T20:32:57.971Z,2.10
2023-03-02T20:35:26.800Z,2.10
2023-03-02T20:37:55.742Z,2.00
2023-03-02T20:40:23.476Z,1.80
2023-03-02T20:42:50.137Z,1.80
2023-03-02T20:45:16.906Z,1.70
2023-03-02T20:47:44.707Z,1.70
2023-03-02T20:50:15.978Z,1.70
2023-03-02T20:52:42.762Z,1.60
2023-03-02T21:00:46.258Z,1.50
2023-03-02T21:03:13.182Z,1.20
2023-03-02T21:05:41.290Z,1.20
2023-03-02T21:08:12.568Z,1.20
2023-03-02T21:10:39.351Z,1.20
2023-03-02T21:13:07.687Z,1.10
2023-03-02T21:15:35.416Z,1.10
2023-03-02T21:18:02.192Z,1.10
2023-03-02T21:20:31.956Z,1.20
2023-03-02T21:22:59.738Z,1.10
2023-03-02T21:25:26.580Z,1.00
2023-03-02T21:27:53.321Z,0.90
2023-03-02T21:30:29.860Z,0.80
2023-03-02T21:32:57.141Z,0.80
2023-03-02T21:37:23.442Z,0.60
2023-03-02T21:43:58.341Z,0.50
2023-03-02T21:50:25.244Z,0.70
2023-03-02T21:56:35.579Z,0.40
2023-03-02T22:02:35.493Z,0.40
2023-03-02T22:09:11.390Z,0.30
2023-03-02T22:15:36.434Z,0.20
2023-03-02T22:21:48.311Z,0.00
2023-03-02T22:27:47.642Z,-0.30
2023-03-02T22:34:28.778Z,-0.30
2023-03-02T22:40:54.451Z,-0.40
2023-03-02T22:47:18.394Z,-0.60
2023-03-02T22:53:41.159Z,-0.70
2023-03-02T23:00:16.026Z,-0.80
2023-03-02T23:06:46.412Z,-0.80
2023-03-02T23:12:56.753Z,-0.90
2023-03-02T23:18:59.200Z,-1.00
2023-03-02T23:25:33.892Z,-1.10
2023-03-02T23:31:59.059Z,-1.00
2023-03-02T23:38:09.098Z,-1.10
2023-03-02T23:44:08.636Z,-1.00
2023-03-02T23:50:44.480Z,-1.20
2023-03-02T23:57:09.525Z,-1.20
